createdAt,value
2022-11-19T00:00:37.475Z,100769.72
2022-11-19T00:03:43.485Z,100768.03
2022-11-19T00:06:46.808Z,100758.75
2022-11-19T00:09:49.778Z,100759.53
2022-11-19T00:12:55.642Z,100748.47
2022-11-19T00:16:03.655Z,100748.53
2022-11-19T00:19:09.391Z,100748.53
2022-11-19T00:22:12.506Z,100758.72
2022-11-19T00:25:16.097Z,100764.66
2022-11-19T00:28:19.137Z,100762.97
2022-11-19T00:31:22.187Z,100763.00
2022-11-19T00:34:26.442Z,100759.63
2022-11-19T00:37:29.750Z,100765.53
2022-11-19T00:40:32.692Z,100763.84
2022-11-19T00:43:48.184Z,100766.41
2022-11-19T00:46:51.528Z,100771.47
2022-11-19T00:49:56.331Z,100770.53
2022-11-19T00:52:59.553Z,100771.38
2022-11-19T00:56:03.974Z,100766.31
2022-11-19T00:59:07.003Z,100767.16
2022-11-19T01:02:09.942Z,100776.44
2022-11-19T01:05:14.869Z,100778.97
2022-11-19T01:08:18.250Z,100776.50
2022-11-19T01:11:24.578Z,100775.69
2022-11-19T01:14:27.630Z,100781.66
2022-11-19T01:17:30.580Z,100782.53
2022-11-19T01:20:34.927Z,100782.53
2022-11-19T01:23:38.468Z,100775.78
2022-11-19T01:26:45.519Z,100775.81
2022-11-19T01:29:49.322Z,100773.31
2022-11-19T01:32:52.328Z,100778.41
2022-11-19T01:36:01.791Z,100783.47
2022-11-19T01:39:04.820Z,100788.53
2022-11-19T01:42:28.528Z,100791.09
2022-11-19T01:45:35.235Z,100782.66
2022-11-19T01:48:41.871Z,100789.44
2022-11-19T01:51:53.406Z,100775.03
2022-11-19T01:54:57.047Z,100796.22
2022-11-19T01:58:02.673Z,100793.63
2022-11-19T02:01:06.510Z,100793.63
2022-11-19T02:04:09.904Z,100801.31
2022-11-19T02:07:15.115Z,100811.41
2022-11-19T02:10:18.535Z,100808.03
2022-11-19T02:13:31.004Z,100802.09
2022-11-19T02:16:43.086Z,100799.56
2022-11-19T02:20:38.247Z,100806.34
2022-11-19T02:24:32.834Z,100802.94
2022-11-19T02:27:59.139Z,100793.56
2022-11-19T02:31:09.899Z,100796.13
2022-11-19T02:35:09.961Z,100782.50
2022-11-19T02:38:24.725Z,100779.09
2022-11-19T02:41:36.985Z,100766.38
2022-11-19T02:45:02.179Z,100761.31
2022-11-19T02:48:11.492Z,100763.78
2022-11-19T02:51:16.887Z,100760.34
2022-11-19T02:54:20.314Z,100767.06
2022-11-19T02:57:23.509Z,100762.00
2022-11-19T03:00:45.070Z,100759.53
2022-11-19T03:04:08.028Z,100765.53
2022-11-19T03:07:16.367Z,100771.47
2022-11-19T03:10:23.781Z,100759.59
2022-11-19T03:13:50.649Z,100768.91
2022-11-19T03:16:59.917Z,100767.25
2022-11-19T03:20:11.772Z,100768.97
2022-11-19T03:23:21.819Z,100775.78
2022-11-19T03:26:31.234Z,100777.50
2022-11-19T03:29:38.068Z,100775.75
2022-11-19T03:32:47.992Z,100776.59
2022-11-19T03:35:55.450Z,100775.72
2022-11-19T03:39:04.535Z,100770.63
2022-11-19T03:42:11.422Z,100775.59
2022-11-19T03:45:18.881Z,100782.34
2022-11-19T03:48:23.981Z,100780.66
2022-11-19T03:51:38.001Z,100788.31
2022-11-19T03:54:41.472Z,100790.84
2022-11-19T03:57:47.808Z,100787.47
2022-11-19T04:00:51.223Z,100787.50
2022-11-19T04:04:11.870Z,100795.94
2022-11-19T04:07:18.585Z,100792.56
2022-11-19T04:10:21.645Z,100788.28
2022-11-19T04:13:24.760Z,100789.16
2022-11-19T04:16:27.928Z,100792.50
2022-11-19T04:19:30.883Z,100789.03
2022-11-19T04:22:35.476Z,100790.78
2022-11-19T04:25:40.290Z,100789.94
2022-11-19T04:28:43.272Z,100783.91
2022-11-19T04:31:47.640Z,100785.63
2022-11-19T04:34:50.666Z,100788.16
2022-11-19T04:37:54.975Z,100782.97
2022-11-19T04:40:57.894Z,100782.22
2022-11-19T04:44:01.117Z,100789.91
2022-11-19T04:47:04.095Z,100787.34
2022-11-19T04:50:09.124Z,100784.00
2022-11-19T04:53:13.892Z,100777.25
2022-11-19T04:56:17.033Z,100774.72
2022-11-19T04:59:20.621Z,100774.69
2022-11-19T05:02:23.951Z,100767.06
2022-11-19T05:05:26.930Z,100767.81
2022-11-19T05:08:31.308Z,100764.47
2022-11-19T05:11:34.220Z,100775.47
2022-11-19T05:14:38.376Z,100760.22
2022-11-19T05:17:41.337Z,100756.00
2022-11-19T05:20:44.466Z,100760.22
2022-11-19T05:23:48.739Z,100755.97
2022-11-19T05:26:51.726Z,100753.38
2022-11-19T05:29:54.712Z,100754.16
2022-11-19T05:32:58.119Z,100744.06
2022-11-19T05:36:01.049Z,100741.41
2022-11-19T05:39:05.387Z,100749.91
2022-11-19T05:42:08.350Z,100744.75
2022-11-19T05:45:12.747Z,100743.03
2022-11-19T05:48:15.712Z,100742.00
2022-11-19T05:51:18.682Z,100736.06
2022-11-19T05:54:23.228Z,100740.31
2022-11-19T05:57:26.213Z,100757.34
2022-11-19T06:00:29.437Z,100754.81
2022-11-19T06:03:33.406Z,100748.72
2022-11-19T06:06:36.551Z,100748.56
2022-11-19T06:09:41.204Z,100758.75
2022-11-19T06:12:46.036Z,100766.50
2022-11-19T06:15:49.560Z,100778.44
2022-11-19T06:18:52.569Z,100774.28
2022-11-19T06:21:55.885Z,100778.47
2022-11-19T06:25:00.150Z,100772.97
2022-11-19T06:28:03.092Z,100762.75
2022-11-19T06:31:06.338Z,100770.16
2022-11-19T06:34:09.819Z,100768.53
2022-11-19T06:37:12.799Z,100773.56
2022-11-19T06:40:17.412Z,100776.75
2022-11-19T06:43:20.977Z,100773.06
2022-11-19T06:46:23.983Z,100784.84
2022-11-19T06:49:26.970Z,100792.50
2022-11-19T06:52:30.233Z,100800.22
2022-11-19T06:55:34.820Z,100800.38
2022-11-19T06:58:37.860Z,100809.84
2022-11-19T07:01:40.819Z,100810.66
2022-11-19T07:04:43.763Z,100805.56
2022-11-19T07:07:46.665Z,100819.09
2022-11-19T07:10:51.750Z,100821.66
2022-11-19T07:13:59.783Z,100825.03
2022-11-19T07:17:03.152Z,100821.56
2022-11-19T07:20:08.540Z,100805.31
2022-11-19T07:23:11.968Z,100799.22
2022-11-19T07:26:16.623Z,100805.09
2022-11-19T07:29:20.099Z,100803.06
2022-11-19T07:32:23.143Z,100810.53
2022-11-19T07:35:26.207Z,100810.44
2022-11-19T07:38:34.139Z,100806.06
2022-11-19T07:41:58.757Z,100822.97
2022-11-19T07:45:03.035Z,100826.13
2022-11-19T07:48:06.662Z,100826.81
2022-11-19T07:51:09.634Z,100830.06
2022-11-19T07:54:15.108Z,100836.69
2022-11-19T07:57:24.618Z,100843.38
2022-11-19T08:00:30.305Z,100836.44
2022-11-19T08:03:33.597Z,100839.75
2022-11-19T08:06:37.005Z,100837.88
2022-11-19T08:09:40.272Z,100829.25
2022-11-19T08:13:03.004Z,100823.25
2022-11-19T08:16:08.737Z,100816.41
2022-11-19T08:19:16.171Z,100823.09
2022-11-19T08:22:19.463Z,100820.53
2022-11-19T08:25:22.535Z,100826.41
2022-11-19T08:28:27.538Z,100828.00
2022-11-19T08:31:30.604Z,100828.88
2022-11-19T08:34:35.321Z,100828.78
2022-11-19T08:37:51.376Z,100821.88
2022-11-19T08:41:15.758Z,100822.72
2022-11-19T08:44:19.777Z,100833.69
2022-11-19T08:47:23.399Z,100833.47
2022-11-19T08:50:26.806Z,100833.34
2022-11-19T08:53:30.081Z,100842.53
2022-11-19T08:56:33.731Z,100838.91
2022-11-19T08:59:38.339Z,100845.56
2022-11-19T09:02:42.651Z,100848.13
2022-11-19T09:05:45.946Z,100847.84
2022-11-19T09:08:49.301Z,100842.44
2022-11-19T09:11:52.645Z,100838.91
2022-11-19T09:14:57.466Z,100832.91
2022-11-19T09:18:00.754Z,100837.28
2022-11-19T09:21:03.996Z,100843.13
2022-11-19T09:24:07.830Z,100845.69
2022-11-19T09:27:11.139Z,100855.09
2022-11-19T09:30:17.173Z,100853.22
2022-11-19T09:33:20.478Z,100849.69
2022-11-19T09:36:23.829Z,100852.97
2022-11-19T09:39:27.471Z,100846.03
2022-11-19T09:42:41.889Z,100851.81
2022-11-19T09:45:57.690Z,100849.00
2022-11-19T09:49:05.218Z,100845.34
2022-11-19T09:52:14.531Z,100841.69
2022-11-19T09:55:27.856Z,100837.13
2022-11-19T09:58:37.424Z,100844.00
2022-11-19T10:01:42.392Z,100838.06
2022-11-19T10:04:46.938Z,100837.13
2022-11-19T10:08:06.343Z,100843.13
2022-11-19T10:11:29.044Z,100833.59
2022-11-19T10:14:55.828Z,100824.19
2022-11-19T10:18:12.795Z,100816.34
2022-11-19T10:21:23.690Z,100817.91
2022-11-19T10:24:35.597Z,100816.09
2022-11-19T10:27:44.757Z,100811.72
2022-11-19T10:30:52.122Z,100802.19
2022-11-19T10:34:04.457Z,100807.22
2022-11-19T10:37:13.969Z,100810.50
2022-11-19T10:40:20.908Z,100799.31
2022-11-19T10:43:33.258Z,100800.13
2022-11-19T10:46:36.706Z,100791.50
2022-11-19T10:49:43.478Z,100785.31
2022-11-19T10:52:51.426Z,100780.69
2022-11-19T10:55:58.622Z,100781.56
2022-11-19T10:59:12.641Z,100777.09
2022-11-19T11:02:28.147Z,100770.09
2022-11-19T11:06:01.107Z,100767.53
2022-11-19T11:09:05.691Z,100759.44
2022-11-19T11:12:32.827Z,100765.38
2022-11-19T11:15:36.384Z,100764.78
2022-11-19T11:18:41.420Z,100761.88
2022-11-19T11:21:47.029Z,100753.84
2022-11-19T11:24:50.472Z,100749.63
2022-11-19T11:28:08.111Z,100748.84
2022-11-19T11:31:12.136Z,100734.03
2022-11-19T11:34:31.195Z,100729.25
2022-11-19T11:37:36.137Z,100731.94
2022-11-19T11:40:39.450Z,100717.25
2022-11-19T11:44:01.230Z,100716.94
2022-11-19T11:47:12.754Z,100710.22
2022-11-19T11:50:23.352Z,100702.38
2022-11-19T11:53:34.298Z,100705.47
2022-11-19T11:56:37.952Z,100695.94
2022-11-19T11:59:41.248Z,100695.91
2022-11-19T12:03:02.101Z,100712.41
2022-11-19T12:06:13.742Z,100707.00
2022-11-19T12:09:28.370Z,100704.75
2022-11-19T12:12:43.136Z,100703.75
2022-11-19T12:15:55.796Z,100702.66
2022-11-19T12:19:24.982Z,100693.75
2022-11-19T12:22:40.644Z,100697.66
2022-11-19T12:26:00.917Z,100701.03
2022-11-19T12:29:20.672Z,100692.72
2022-11-19T12:32:51.640Z,100688.44
2022-11-19T12:36:08.493Z,100689.25
2022-11-19T12:39:26.666Z,100689.03
2022-11-19T12:42:48.220Z,100689.03
2022-11-19T12:46:01.587Z,100684.13
2022-11-19T12:49:44.554Z,100684.00
2022-11-19T12:53:24.599Z,100679.63
2022-11-19T12:56:46.622Z,100681.28
2022-11-19T13:00:08.839Z,100673.78
2022-11-19T13:03:19.094Z,100663.69
2022-11-19T13:06:27.266Z,100661.91
2022-11-19T13:09:40.877Z,100656.97
2022-11-19T13:12:50.379Z,100641.75
2022-11-19T13:16:01.534Z,100639.69
2022-11-19T13:19:20.804Z,100635.22
2022-11-19T13:22:28.948Z,100638.06
2022-11-19T13:25:36.890Z,100640.94
2022-11-19T13:28:48.710Z,100628.28
2022-11-19T13:32:00.068Z,100622.59
2022-11-19T13:35:17.851Z,100618.22
2022-11-19T13:38:26.392Z,100616.94
2022-11-19T13:41:33.637Z,100618.00
2022-11-19T13:44:41.281Z,100612.41
2022-11-19T13:47:56.870Z,100611.41
2022-11-19T13:51:09.646Z,100596.03
2022-11-19T13:54:24.973Z,100590.50
2022-11-19T13:57:33.631Z,100588.38
2022-11-19T14:00:38.481Z,100581.50
2022-11-19T14:04:01.606Z,100578.13
2022-11-19T14:07:39.168Z,100565.50
2022-11-19T14:10:56.463Z,100563.69
2022-11-19T14:14:41.522Z,100555.19
2022-11-19T14:18:10.281Z,100557.72
2022-11-19T14:22:18.865Z,100556.88
2022-11-19T14:26:03.465Z,100566.31
2022-11-19T14:29:07.625Z,100565.50
2022-11-19T14:32:20.046Z,100570.56
2022-11-19T14:35:37.003Z,100566.69
2022-11-19T14:38:48.227Z,100555.81
2022-11-19T14:42:15.511Z,100552.50
2022-11-19T14:45:21.396Z,100529.97
2022-11-19T14:48:24.870Z,100523.22
2022-11-19T14:51:32.934Z,100514.81
2022-11-19T14:54:43.776Z,100517.53
2022-11-19T14:57:57.787Z,100507.41
2022-11-19T15:01:09.588Z,100494.81
2022-11-19T15:04:14.568Z,100489.00
2022-11-19T15:07:35.500Z,100480.34
2022-11-19T15:11:05.118Z,100474.31
2022-11-19T15:14:59.900Z,100466.34
2022-11-19T15:18:30.028Z,100461.22
2022-11-19T15:22:26.469Z,100454.53
2022-11-19T15:25:40.855Z,100454.72
2022-11-19T15:29:04.873Z,100444.63
2022-11-19T15:32:27.589Z,100440.19
2022-11-19T15:35:52.521Z,100434.50
2022-11-19T15:39:02.627Z,100433.91
2022-11-19T15:42:14.468Z,100431.25
2022-11-19T15:45:23.273Z,100418.50
2022-11-19T15:48:36.664Z,100421.06
2022-11-19T15:52:00.272Z,100424.47
2022-11-19T15:55:17.771Z,100427.22
2022-11-19T15:58:27.408Z,100416.25
2022-11-19T16:01:34.323Z,100422.31
2022-11-19T16:04:40.129Z,100413.75
2022-11-19T16:07:48.617Z,100415.50
2022-11-19T16:11:17.302Z,100403.59
2022-11-19T16:14:46.507Z,100402.88
2022-11-19T16:17:51.284Z,100401.09
2022-11-19T16:20:55.198Z,100398.78
2022-11-19T16:24:17.437Z,100398.72
2022-11-19T16:27:26.460Z,100398.78
2022-11-19T16:30:39.134Z,100391.28
2022-11-19T16:33:43.989Z,100381.94
2022-11-19T16:36:48.552Z,100385.59
2022-11-19T16:39:53.908Z,100385.59
2022-11-19T16:43:00.769Z,100387.25
2022-11-19T16:46:06.579Z,100371.84
2022-11-19T16:49:30.930Z,100371.81
2022-11-19T16:52:44.705Z,100374.44
2022-11-19T16:55:53.011Z,100374.41
2022-11-19T16:59:00.846Z,100373.47
2022-11-19T17:02:05.081Z,100373.41
2022-11-19T17:05:13.311Z,100368.34
2022-11-19T17:08:23.409Z,100369.19
2022-11-19T17:11:59.819Z,100378.59
2022-11-19T17:15:33.633Z,100372.53
2022-11-19T17:18:36.971Z,100363.03
2022-11-19T17:21:41.749Z,100363.91
2022-11-19T17:24:49.388Z,100362.25
2022-11-19T17:27:56.364Z,100361.34
2022-11-19T17:31:01.649Z,100360.41
2022-11-19T17:34:12.261Z,100358.75
2022-11-19T17:37:16.914Z,100366.41
2022-11-19T17:40:20.664Z,100364.59
2022-11-19T17:43:43.770Z,100356.94
2022-11-19T17:46:49.162Z,100361.22
2022-11-19T17:49:53.066Z,100361.97
2022-11-19T17:52:58.009Z,100356.94
2022-11-19T17:56:02.732Z,100358.47
2022-11-19T17:59:06.023Z,100368.56
2022-11-19T18:02:15.444Z,100356.59
2022-11-19T18:05:23.086Z,100359.91
2022-11-19T18:08:27.818Z,100356.56
2022-11-19T18:11:32.015Z,100361.63
2022-11-19T18:14:35.291Z,100355.50
2022-11-19T18:17:38.616Z,100346.88
2022-11-19T18:20:42.958Z,100352.97
2022-11-19T18:23:50.337Z,100351.09
2022-11-19T18:26:53.594Z,100347.72
2022-11-19T18:29:56.891Z,100347.69
2022-11-19T18:33:00.296Z,100341.81
2022-11-19T18:36:05.879Z,100342.50
2022-11-19T18:39:10.588Z,100342.38
2022-11-19T18:42:13.921Z,100341.38
2022-11-19T18:45:16.366Z,100350.78
2022-11-19T18:48:19.298Z,100347.34
2022-11-19T18:51:22.745Z,100348.06
2022-11-19T18:54:27.489Z,100341.06
2022-11-19T18:57:38.297Z,100337.50
2022-11-19T19:00:42.445Z,100339.19
2022-11-19T19:03:45.905Z,100335.72
2022-11-19T19:06:49.189Z,100340.72
2022-11-19T19:09:53.441Z,100338.97
2022-11-19T19:12:56.387Z,100338.16
2022-11-19T19:16:01.571Z,100331.09
2022-11-19T19:19:05.015Z,100331.16
2022-11-19T19:22:08.828Z,100328.47
2022-11-19T19:25:13.503Z,100333.44
2022-11-19T19:28:18.964Z,100338.59
2022-11-19T19:31:23.199Z,100330.06
2022-11-19T19:34:26.307Z,100336.94
2022-11-19T19:37:29.287Z,100338.59
2022-11-19T19:40:33.593Z,100340.19
2022-11-19T19:43:36.663Z,100338.41
2022-11-19T19:46:39.859Z,100336.72
2022-11-19T19:49:43.417Z,100334.06
2022-11-19T19:52:46.741Z,100353.00
2022-11-19T19:55:54.188Z,100353.88
2022-11-19T19:59:05.280Z,100346.94
2022-11-19T20:02:11.158Z,100356.28
2022-11-19T20:05:15.241Z,100349.59
2022-11-19T20:08:20.080Z,100358.91
2022-11-19T20:11:28.346Z,100360.69
2022-11-19T20:14:39.826Z,100364.91
2022-11-19T20:17:48.440Z,100362.47
2022-11-19T20:21:00.592Z,100370.03
2022-11-19T20:24:12.374Z,100371.66
2022-11-19T20:27:18.012Z,100370.03
2022-11-19T20:30:21.138Z,100376.28
2022-11-19T20:33:25.246Z,100375.28
2022-11-19T20:36:40.144Z,100372.81
2022-11-19T20:39:49.972Z,100383.91
2022-11-19T20:43:13.846Z,100389.88
2022-11-19T20:46:36.228Z,100384.66
2022-11-19T20:50:00.159Z,100382.09
2022-11-19T20:53:14.787Z,100384.75
2022-11-19T20:56:33.678Z,100383.22
2022-11-19T21:03:49.794Z,100389.53
2022-11-19T21:06:54.206Z,100386.97
2022-11-19T21:09:57.619Z,100387.75
2022-11-19T21:13:03.394Z,100386.06
2022-11-19T21:16:10.624Z,100380.03
2022-11-19T21:19:14.099Z,100386.84
2022-11-19T21:22:17.071Z,100384.94
2022-11-19T21:25:20.197Z,100386.75
2022-11-19T21:28:23.785Z,100383.50
2022-11-19T21:31:39.356Z,100376.81
2022-11-19T21:34:45.865Z,100378.59
2022-11-19T21:37:48.899Z,100376.94
2022-11-19T21:40:53.681Z,100379.38
2022-11-19T21:43:56.960Z,100375.94
2022-11-19T21:47:02.664Z,100378.59
2022-11-19T21:50:07.006Z,100378.38
2022-11-19T21:53:11.946Z,100375.81
2022-11-19T21:56:14.946Z,100373.25
2022-11-19T21:59:18.193Z,100372.59
2022-11-19T22:02:23.704Z,100370.25
2022-11-19T22:05:28.354Z,100365.88
2022-11-19T22:08:32.490Z,100368.66
2022-11-19T22:11:35.436Z,100371.19
2022-11-19T22:14:40.865Z,100372.66
2022-11-19T22:17:45.286Z,100370.16
2022-11-19T22:20:50.452Z,100364.16
2022-11-19T22:23:53.568Z,100359.91
2022-11-19T22:26:56.684Z,100352.97
2022-11-19T22:30:03.095Z,100353.06
2022-11-19T22:33:10.088Z,100359.03
2022-11-19T22:36:13.396Z,100351.53
2022-11-19T22:39:18.407Z,100353.34
2022-11-19T22:42:21.609Z,100354.41
2022-11-19T22:45:25.011Z,100351.75
2022-11-19T22:48:44.530Z,100344.91
2022-11-19T22:51:47.629Z,100350.72
2022-11-19T22:54:50.688Z,100348.38
2022-11-19T22:57:53.910Z,100337.84
2022-11-19T23:00:57.196Z,100340.63
2022-11-19T23:04:05.822Z,100337.44
2022-11-19T23:07:08.961Z,100343.94
2022-11-19T23:10:11.953Z,100339.81
2022-11-19T23:13:31.920Z,100345.00
2022-11-19T23:16:35.181Z,100340.75
2022-11-19T23:19:39.511Z,100342.38
2022-11-19T23:22:42.513Z,100342.66
2022-11-19T23:25:46.004Z,100349.50
2022-11-19T23:28:49.550Z,100346.09
2022-11-19T23:31:52.501Z,100346.72
2022-11-19T23:34:57.918Z,100340.03
2022-11-19T23:38:01.340Z,100337.38
2022-11-19T23:41:05.888Z,100336.69
2022-11-19T23:44:09.268Z,100333.44
2022-11-19T23:47:12.233Z,100331.78
2022-11-19T23:50:16.786Z,100352.16
2022-11-19T23:53:20.255Z,100343.78
2022-11-19T23:56:28.710Z,100338.66
2022-11-19T23:59:36.526Z,100345.88
